sensor_id;sensor_type;location;lat;lon;timestamp;P1;durP1;ratioP1;P2;durP2;ratioP2
76807;SDS011;65758;45.458;11.062;2023-09-19T00:00:47;7.40;;;2.30;;
76807;SDS011;65758;45.458;11.062;2023-09-19T00:03:15;12.60;;;3.10;;
76807;SDS011;65758;45.458;11.062;2023-09-19T00:05:44;11.10;;;2.80;;
76807;SDS011;65758;45.458;11.062;2023-09-19T00:08:12;8.30;;;3.10;;
76807;SDS011;65758;45.458;11.062;2023-09-19T00:10:43;7.90;;;2.80;;
76807;SDS011;65758;45.458;11.062;2023-09-19T00:13:10;9.20;;;3.40;;
76807;SDS011;65758;45.458;11.062;2023-09-19T00:15:43;9.90;;;3.10;;
76807;SDS011;65758;45.458;11.062;2023-09-19T00:18:19;11.80;;;3.60;;
76807;SDS011;65758;45.458;11.062;2023-09-19T00:20:51;9.10;;;2.90;;
76807;SDS011;65758;45.458;11.062;2023-09-19T00:23:19;11.30;;;3.10;;
76807;SDS011;65758;45.458;11.062;2023-09-19T00:25:46;9.70;;;3.00;;
76807;SDS011;65758;45.458;11.062;2023-09-19T00:28:14;8.30;;;2.50;;
76807;SDS011;65758;45.458;11.062;2023-09-19T00:30:44;6.60;;;3.10;;
76807;SDS011;65758;45.458;11.062;2023-09-19T00:33:17;8.50;;;3.50;;
76807;SDS011;65758;45.458;11.062;2023-09-19T00:35:49;9.40;;;2.90;;
76807;SDS011;65758;45.458;11.062;2023-09-19T00:38:18;7.80;;;2.90;;
76807;SDS011;65758;45.458;11.062;2023-09-19T00:40:49;7.40;;;3.00;;
76807;SDS011;65758;45.458;11.062;2023-09-19T00:43:20;8.20;;;2.70;;
76807;SDS011;65758;45.458;11.062;2023-09-19T00:45:48;9.40;;;3.10;;
76807;SDS011;65758;45.458;11.062;2023-09-19T00:48:19;7.30;;;3.10;;
76807;SDS011;65758;45.458;11.062;2023-09-19T00:50:47;10.50;;;3.10;;
76807;SDS011;65758;45.458;11.062;2023-09-19T00:53:17;8.80;;;2.80;;
76807;SDS011;65758;45.458;11.062;2023-09-19T00:55:46;10.90;;;3.30;;
76807;SDS011;65758;45.458;11.062;2023-09-19T00:58:16;10.10;;;3.10;;
76807;SDS011;65758;45.458;11.062;2023-09-19T01:00:44;7.10;;;2.70;;
76807;SDS011;65758;45.458;11.062;2023-09-19T01:03:12;7.20;;;2.90;;
76807;SDS011;65758;45.458;11.062;2023-09-19T01:05:40;6.70;;;2.90;;
76807;SDS011;65758;45.458;11.062;2023-09-19T01:08:07;6.50;;;2.80;;
76807;SDS011;65758;45.458;11.062;2023-09-19T01:10:33;6.20;;;2.90;;
76807;SDS011;65758;45.458;11.062;2023-09-19T01:16:01;12.30;;;3.00;;
76807;SDS011;65758;45.458;11.062;2023-09-19T01:18:47;8.10;;;2.70;;
76807;SDS011;65758;45.458;11.062;2023-09-19T01:24:29;8.00;;;2.90;;
76807;SDS011;65758;45.458;11.062;2023-09-19T01:29:48;9.80;;;2.70;;
76807;SDS011;65758;45.458;11.062;2023-09-19T01:32:19;10.10;;;3.10;;
76807;SDS011;65758;45.458;11.062;2023-09-19T01:37:23;13.70;;;3.10;;
76807;SDS011;65758;45.458;11.062;2023-09-19T01:40:06;7.10;;;2.70;;
76807;SDS011;65758;45.458;11.062;2023-09-19T01:42:58;7.20;;;3.30;;
76807;SDS011;65758;45.458;11.062;2023-09-19T01:51:20;5.50;;;3.10;;
76807;SDS011;65758;45.458;11.062;2023-09-19T01:53:59;7.90;;;3.40;;
76807;SDS011;65758;45.458;11.062;2023-09-19T01:56:35;9.80;;;3.30;;
76807;SDS011;65758;45.458;11.062;2023-09-19T01:59:10;7.40;;;3.50;;
76807;SDS011;65758;45.458;11.062;2023-09-19T02:01:40;13.20;;;3.30;;
76807;SDS011;65758;45.458;11.062;2023-09-19T02:04:11;10.00;;;3.30;;
76807;SDS011;65758;45.458;11.062;2023-09-19T02:06:41;11.70;;;3.20;;
76807;SDS011;65758;45.458;11.062;2023-09-19T02:09:08;8.30;;;3.20;;
76807;SDS011;65758;45.458;11.062;2023-09-19T02:11:35;6.10;;;3.00;;
76807;SDS011;65758;45.458;11.062;2023-09-19T02:14:05;6.50;;;2.70;;
76807;SDS011;65758;45.458;11.062;2023-09-19T02:16:35;12.00;;;3.70;;
76807;SDS011;65758;45.458;11.062;2023-09-19T02:19:03;7.00;;;2.90;;
76807;SDS011;65758;45.458;11.062;2023-09-19T02:21:32;12.60;;;3.30;;
76807;SDS011;65758;45.458;11.062;2023-09-19T02:23:59;8.60;;;3.50;;
76807;SDS011;65758;45.458;11.062;2023-09-19T02:26:26;11.00;;;3.20;;
76807;SDS011;65758;45.458;11.062;2023-09-19T02:28:54;6.90;;;2.80;;
76807;SDS011;65758;45.458;11.062;2023-09-19T02:31:21;9.30;;;3.40;;
76807;SDS011;65758;45.458;11.062;2023-09-19T02:33:48;7.10;;;3.40;;
76807;SDS011;65758;45.458;11.062;2023-09-19T02:36:15;7.90;;;2.90;;
76807;SDS011;65758;45.458;11.062;2023-09-19T02:38:44;10.80;;;3.20;;
76807;SDS011;65758;45.458;11.062;2023-09-19T02:41:11;9.20;;;3.10;;
76807;SDS011;65758;45.458;11.062;2023-09-19T02:43:38;11.80;;;3.30;;
76807;SDS011;65758;45.458;11.062;2023-09-19T02:46:06;8.90;;;3.00;;
76807;SDS011;65758;45.458;11.062;2023-09-19T02:48:33;6.80;;;3.00;;
76807;SDS011;65758;45.458;11.062;2023-09-19T02:51:01;9.70;;;3.10;;
76807;SDS011;65758;45.458;11.062;2023-09-19T02:53:31;9.50;;;3.10;;
76807;SDS011;65758;45.458;11.062;2023-09-19T02:55:58;7.40;;;3.00;;
76807;SDS011;65758;45.458;11.062;2023-09-19T02:58:25;9.20;;;3.40;;
76807;SDS011;65758;45.458;11.062;2023-09-19T03:00:54;7.90;;;2.80;;
76807;SDS011;65758;45.458;11.062;2023-09-19T03:03:22;10.80;;;3.30;;
76807;SDS011;65758;45.458;11.062;2023-09-19T03:05:49;7.70;;;2.70;;
76807;SDS011;65758;45.458;11.062;2023-09-19T03:08:21;8.20;;;2.90;;
76807;SDS011;65758;45.458;11.062;2023-09-19T03:10:48;10.40;;;2.90;;
76807;SDS011;65758;45.458;11.062;2023-09-19T03:13:15;12.10;;;2.80;;
76807;SDS011;65758;45.458;11.062;2023-09-19T03:15:42;12.00;;;2.80;;
76807;SDS011;65758;45.458;11.062;2023-09-19T03:18:20;8.40;;;2.50;;
76807;SDS011;65758;45.458;11.062;2023-09-19T03:20:54;9.00;;;2.80;;
76807;SDS011;65758;45.458;11.062;2023-09-19T03:23:22;7.60;;;3.20;;
76807;SDS011;65758;45.458;11.062;2023-09-19T03:25:49;7.30;;;3.00;;
76807;SDS011;65758;45.458;11.062;2023-09-19T03:28:17;8.30;;;2.80;;
76807;SDS011;65758;45.458;11.062;2023-09-19T03:30:44;7.70;;;3.50;;
76807;SDS011;65758;45.458;11.062;2023-09-19T03:33:12;11.30;;;3.40;;
76807;SDS011;65758;45.458;11.062;2023-09-19T03:35:39;8.20;;;3.50;;
76807;SDS011;65758;45.458;11.062;2023-09-19T03:38:06;7.10;;;3.10;;
76807;SDS011;65758;45.458;11.062;2023-09-19T03:40:33;6.50;;;2.90;;
76807;SDS011;65758;45.458;11.062;2023-09-19T03:43:01;6.20;;;2.80;;
76807;SDS011;65758;45.458;11.062;2023-09-19T03:45:29;7.00;;;3.30;;
76807;SDS011;65758;45.458;11.062;2023-09-19T03:47:56;8.70;;;3.30;;
76807;SDS011;65758;45.458;11.062;2023-09-19T03:50:23;6.20;;;3.30;;
76807;SDS011;65758;45.458;11.062;2023-09-19T03:52:50;10.40;;;3.00;;
76807;SDS011;65758;45.458;11.062;2023-09-19T03:55:22;11.30;;;3.50;;
76807;SDS011;65758;45.458;11.062;2023-09-19T03:57:49;13.40;;;3.40;;
76807;SDS011;65758;45.458;11.062;2023-09-19T04:00:17;7.40;;;3.40;;
76807;SDS011;65758;45.458;11.062;2023-09-19T04:02:48;6.80;;;3.00;;
76807;SDS011;65758;45.458;11.062;2023-09-19T04:05:15;6.20;;;2.50;;
76807;SDS011;65758;45.458;11.062;2023-09-19T04:07:43;7.70;;;2.70;;
76807;SDS011;65758;45.458;11.062;2023-09-19T04:10:10;9.40;;;3.30;;
76807;SDS011;65758;45.458;11.062;2023-09-19T04:12:50;6.20;;;2.90;;
76807;SDS011;65758;45.458;11.062;2023-09-19T04:15:18;8.70;;;2.80;;
76807;SDS011;65758;45.458;11.062;2023-09-19T04:17:46;7.10;;;2.80;;
76807;SDS011;65758;45.458;11.062;2023-09-19T04:20:12;7.80;;;3.00;;
76807;SDS011;65758;45.458;11.062;2023-09-19T04:22:40;4.40;;;2.70;;
76807;SDS011;65758;45.458;11.062;2023-09-19T04:25:07;7.00;;;2.90;;
76807;SDS011;65758;45.458;11.062;2023-09-19T04:27:34;8.80;;;3.40;;
76807;SDS011;65758;45.458;11.062;2023-09-19T04:30:01;8.60;;;3.90;;
76807;SDS011;65758;45.458;11.062;2023-09-19T04:32:30;5.70;;;2.80;;
76807;SDS011;65758;45.458;11.062;2023-09-19T04:34:59;6.20;;;2.80;;
76807;SDS011;65758;45.458;11.062;2023-09-19T04:37:29;6.60;;;2.70;;
76807;SDS011;65758;45.458;11.062;2023-09-19T04:39:56;6.00;;;2.90;;
76807;SDS011;65758;45.458;11.062;2023-09-19T04:42:23;8.30;;;3.00;;
76807;SDS011;65758;45.458;11.062;2023-09-19T04:44:51;10.10;;;3.10;;
76807;SDS011;65758;45.458;11.062;2023-09-19T04:47:19;5.70;;;2.60;;
76807;SDS011;65758;45.458;11.062;2023-09-19T04:49:48;7.60;;;3.00;;
76807;SDS011;65758;45.458;11.062;2023-09-19T04:52:14;4.80;;;2.80;;
76807;SDS011;65758;45.458;11.062;2023-09-19T04:54:42;7.40;;;3.00;;
76807;SDS011;65758;45.458;11.062;2023-09-19T04:57:08;9.10;;;3.10;;
76807;SDS011;65758;45.458;11.062;2023-09-19T04:59:35;12.70;;;3.90;;
76807;SDS011;65758;45.458;11.062;2023-09-19T05:02:03;9.00;;;2.90;;
76807;SDS011;65758;45.458;11.062;2023-09-19T05:04:30;9.40;;;3.30;;
76807;SDS011;65758;45.458;11.062;2023-09-19T05:06:57;12.50;;;3.50;;
76807;SDS011;65758;45.458;11.062;2023-09-19T05:09:25;10.30;;;3.30;;
76807;SDS011;65758;45.458;11.062;2023-09-19T05:11:51;9.10;;;3.10;;
76807;SDS011;65758;45.458;11.062;2023-09-19T05:14:19;11.30;;;3.50;;
76807;SDS011;65758;45.458;11.062;2023-09-19T05:16:47;10.70;;;3.50;;
76807;SDS011;65758;45.458;11.062;2023-09-19T05:19:14;11.80;;;3.50;;
76807;SDS011;65758;45.458;11.062;2023-09-19T05:21:41;9.00;;;3.50;;
76807;SDS011;65758;45.458;11.062;2023-09-19T05:24:08;15.20;;;3.80;;
76807;SDS011;65758;45.458;11.062;2023-09-19T05:26:37;15.00;;;3.40;;
76807;SDS011;65758;45.458;11.062;2023-09-19T05:29:03;10.00;;;4.00;;
76807;SDS011;65758;45.458;11.062;2023-09-19T05:31:31;8.80;;;3.80;;
76807;SDS011;65758;45.458;11.062;2023-09-19T05:33:58;5.90;;;3.60;;
76807;SDS011;65758;45.458;11.062;2023-09-19T05:36:27;7.90;;;3.40;;
76807;SDS011;65758;45.458;11.062;2023-09-19T05:38:56;10.40;;;3.70;;
76807;SDS011;65758;45.458;11.062;2023-09-19T05:41:23;9.00;;;3.60;;
76807;SDS011;65758;45.458;11.062;2023-09-19T05:43:50;10.60;;;3.70;;
76807;SDS011;65758;45.458;11.062;2023-09-19T05:46:17;9.50;;;3.80;;
76807;SDS011;65758;45.458;11.062;2023-09-19T05:48:44;9.80;;;3.10;;
76807;SDS011;65758;45.458;11.062;2023-09-19T05:51:11;7.20;;;3.00;;
76807;SDS011;65758;45.458;11.062;2023-09-19T05:53:38;9.90;;;3.60;;
76807;SDS011;65758;45.458;11.062;2023-09-19T05:56:05;11.10;;;3.50;;
76807;SDS011;65758;45.458;11.062;2023-09-19T05:58:32;8.40;;;3.60;;
76807;SDS011;65758;45.458;11.062;2023-09-19T06:00:59;9.30;;;3.60;;
76807;SDS011;65758;45.458;11.062;2023-09-19T06:03:26;6.60;;;2.90;;
76807;SDS011;65758;45.458;11.062;2023-09-19T06:05:53;12.80;;;4.30;;
76807;SDS011;65758;45.458;11.062;2023-09-19T06:08:24;9.30;;;3.60;;
76807;SDS011;65758;45.458;11.062;2023-09-19T06:10:52;11.10;;;3.70;;
76807;SDS011;65758;45.458;11.062;2023-09-19T06:13:19;8.90;;;3.60;;
76807;SDS011;65758;45.458;11.062;2023-09-19T06:15:46;7.80;;;3.40;;
76807;SDS011;65758;45.458;11.062;2023-09-19T06:18:14;8.30;;;3.40;;
76807;SDS011;65758;45.458;11.062;2023-09-19T06:20:46;7.10;;;3.90;;
76807;SDS011;65758;45.458;11.062;2023-09-19T06:23:15;9.40;;;3.70;;
76807;SDS011;65758;45.458;11.062;2023-09-19T06:25:42;7.40;;;3.70;;
76807;SDS011;65758;45.458;11.062;2023-09-19T06:28:10;8.80;;;4.00;;
76807;SDS011;65758;45.458;11.062;2023-09-19T06:30:39;11.50;;;3.50;;
76807;SDS011;65758;45.458;11.062;2023-09-19T06:33:09;8.80;;;3.00;;
76807;SDS011;65758;45.458;11.062;2023-09-19T06:35:38;12.20;;;3.70;;
76807;SDS011;65758;45.458;11.062;2023-09-19T06:38:05;8.80;;;3.80;;
76807;SDS011;65758;45.458;11.062;2023-09-19T06:40:33;8.90;;;3.40;;
76807;SDS011;65758;45.458;11.062;2023-09-19T06:43:01;10.00;;;3.40;;
76807;SDS011;65758;45.458;11.062;2023-09-19T06:45:30;8.20;;;3.70;;
76807;SDS011;65758;45.458;11.062;2023-09-19T06:47:58;10.40;;;4.50;;
76807;SDS011;65758;45.458;11.062;2023-09-19T06:50:27;11.40;;;4.10;;
76807;SDS011;65758;45.458;11.062;2023-09-19T06:52:54;14.50;;;4.10;;
76807;SDS011;65758;45.458;11.062;2023-09-19T06:55:24;11.70;;;4.20;;
76807;SDS011;65758;45.458;11.062;2023-09-19T06:57:55;7.60;;;3.90;;
76807;SDS011;65758;45.458;11.062;2023-09-19T07:00:22;8.10;;;4.10;;
76807;SDS011;65758;45.458;11.062;2023-09-19T07:03:01;9.00;;;5.20;;
76807;SDS011;65758;45.458;11.062;2023-09-19T07:05:31;9.20;;;4.20;;
76807;SDS011;65758;45.458;11.062;2023-09-19T07:07:59;10.60;;;4.50;;
76807;SDS011;65758;45.458;11.062;2023-09-19T07:10:29;10.70;;;4.60;;
76807;SDS011;65758;45.458;11.062;2023-09-19T07:12:57;7.80;;;4.40;;
76807;SDS011;65758;45.458;11.062;2023-09-19T07:15:25;8.10;;;4.30;;
76807;SDS011;65758;45.458;11.062;2023-09-19T07:17:53;9.80;;;4.40;;
76807;SDS011;65758;45.458;11.062;2023-09-19T07:20:23;8.70;;;4.70;;
76807;SDS011;65758;45.458;11.062;2023-09-19T07:22:56;11.20;;;4.60;;
76807;SDS011;65758;45.458;11.062;2023-09-19T07:25:29;7.10;;;4.20;;
76807;SDS011;65758;45.458;11.062;2023-09-19T07:27:57;7.60;;;3.70;;
76807;SDS011;65758;45.458;11.062;2023-09-19T07:30:27;8.50;;;3.80;;
76807;SDS011;65758;45.458;11.062;2023-09-19T07:32:54;7.90;;;4.00;;
76807;SDS011;65758;45.458;11.062;2023-09-19T07:35:22;6.50;;;3.90;;
76807;SDS011;65758;45.458;11.062;2023-09-19T07:37:49;8.20;;;4.40;;
76807;SDS011;65758;45.458;11.062;2023-09-19T07:40:18;8.30;;;4.00;;
76807;SDS011;65758;45.458;11.062;2023-09-19T07:42:47;13.60;;;4.50;;
76807;SDS011;65758;45.458;11.062;2023-09-19T07:45:15;8.80;;;4.10;;
76807;SDS011;65758;45.458;11.062;2023-09-19T07:47:44;8.00;;;4.10;;
76807;SDS011;65758;45.458;11.062;2023-09-19T07:50:16;8.90;;;4.20;;
76807;SDS011;65758;45.458;11.062;2023-09-19T07:52:46;10.70;;;4.10;;
76807;SDS011;65758;45.458;11.062;2023-09-19T07:55:14;8.80;;;4.00;;
76807;SDS011;65758;45.458;11.062;2023-09-19T07:57:46;9.20;;;3.50;;
76807;SDS011;65758;45.458;11.062;2023-09-19T08:00:14;8.20;;;3.60;;
76807;SDS011;65758;45.458;11.062;2023-09-19T08:02:41;6.40;;;3.30;;
76807;SDS011;65758;45.458;11.062;2023-09-19T08:05:11;8.10;;;3.80;;
76807;SDS011;65758;45.458;11.062;2023-09-19T08:08:00;8.20;;;4.00;;
76807;SDS011;65758;45.458;11.062;2023-09-19T08:10:27;10.20;;;3.70;;
76807;SDS011;65758;45.458;11.062;2023-09-19T08:13:01;10.10;;;4.00;;
76807;SDS011;65758;45.458;11.062;2023-09-19T08:15:28;8.90;;;3.70;;
76807;SDS011;65758;45.458;11.062;2023-09-19T08:17:55;9.80;;;3.60;;
76807;SDS011;65758;45.458;11.062;2023-09-19T08:20:22;8.30;;;3.70;;
76807;SDS011;65758;45.458;11.062;2023-09-19T08:22:50;8.40;;;3.30;;
76807;SDS011;65758;45.458;11.062;2023-09-19T08:25:21;7.70;;;3.20;;
76807;SDS011;65758;45.458;11.062;2023-09-19T08:27:50;7.40;;;3.50;;
76807;SDS011;65758;45.458;11.062;2023-09-19T08:30:18;8.50;;;3.00;;
76807;SDS011;65758;45.458;11.062;2023-09-19T08:32:51;6.60;;;3.30;;
76807;SDS011;65758;45.458;11.062;2023-09-19T08:35:18;8.80;;;3.20;;
76807;SDS011;65758;45.458;11.062;2023-09-19T08:37:46;8.50;;;3.30;;
76807;SDS011;65758;45.458;11.062;2023-09-19T08:40:14;6.00;;;2.80;;
76807;SDS011;65758;45.458;11.062;2023-09-19T08:42:51;5.90;;;2.90;;
76807;SDS011;65758;45.458;11.062;2023-09-19T08:45:21;4.90;;;2.50;;
76807;SDS011;65758;45.458;11.062;2023-09-19T08:48:10;7.00;;;2.50;;
76807;SDS011;65758;45.458;11.062;2023-09-19T08:53:43;6.40;;;2.20;;
76807;SDS011;65758;45.458;11.062;2023-09-19T08:56:18;8.00;;;2.40;;
76807;SDS011;65758;45.458;11.062;2023-09-19T08:58:56;4.60;;;2.40;;
76807;SDS011;65758;45.458;11.062;2023-09-19T09:01:29;6.20;;;2.20;;
76807;SDS011;65758;45.458;11.062;2023-09-19T09:03:59;5.90;;;2.20;;
76807;SDS011;65758;45.458;11.062;2023-09-19T09:06:29;4.10;;;1.80;;
76807;SDS011;65758;45.458;11.062;2023-09-19T09:08:56;4.70;;;2.00;;
76807;SDS011;65758;45.458;11.062;2023-09-19T09:11:23;3.40;;;1.80;;
76807;SDS011;65758;45.458;11.062;2023-09-19T09:13:55;5.10;;;1.70;;
76807;SDS011;65758;45.458;11.062;2023-09-19T09:16:22;5.30;;;2.00;;
76807;SDS011;65758;45.458;11.062;2023-09-19T09:18:53;6.10;;;2.10;;
76807;SDS011;65758;45.458;11.062;2023-09-19T09:21:21;6.30;;;2.50;;
76807;SDS011;65758;45.458;11.062;2023-09-19T09:23:51;5.20;;;2.00;;
76807;SDS011;65758;45.458;11.062;2023-09-19T09:29:06;4.60;;;1.80;;
76807;SDS011;65758;45.458;11.062;2023-09-19T09:31:33;3.80;;;2.00;;
76807;SDS011;65758;45.458;11.062;2023-09-19T09:34:00;3.10;;;1.50;;
76807;SDS011;65758;45.458;11.062;2023-09-19T09:36:38;5.20;;;2.00;;
76807;SDS011;65758;45.458;11.062;2023-09-19T09:39:08;5.90;;;2.00;;
76807;SDS011;65758;45.458;11.062;2023-09-19T09:44:19;5.30;;;2.20;;
76807;SDS011;65758;45.458;11.062;2023-09-19T09:46:47;7.50;;;2.40;;
76807;SDS011;65758;45.458;11.062;2023-09-19T09:49:25;4.90;;;1.80;;
76807;SDS011;65758;45.458;11.062;2023-09-19T09:52:01;4.90;;;2.00;;
76807;SDS011;65758;45.458;11.062;2023-09-19T09:55:00;5.10;;;1.90;;
76807;SDS011;65758;45.458;11.062;2023-09-19T09:57:32;7.60;;;2.00;;
76807;SDS011;65758;45.458;11.062;2023-09-19T10:00:00;5.60;;;2.50;;
76807;SDS011;65758;45.458;11.062;2023-09-19T10:02:40;3.60;;;1.80;;
76807;SDS011;65758;45.458;11.062;2023-09-19T10:05:15;6.00;;;2.10;;
76807;SDS011;65758;45.458;11.062;2023-09-19T10:10:29;3.60;;;1.90;;
76807;SDS011;65758;45.458;11.062;2023-09-19T10:13:10;6.10;;;2.00;;
76807;SDS011;65758;45.458;11.062;2023-09-19T10:15:44;7.40;;;2.70;;
76807;SDS011;65758;45.458;11.062;2023-09-19T10:18:21;6.30;;;2.40;;
76807;SDS011;65758;45.458;11.062;2023-09-19T10:20:53;4.90;;;1.80;;
76807;SDS011;65758;45.458;11.062;2023-09-19T10:23:21;8.30;;;2.30;;
76807;SDS011;65758;45.458;11.062;2023-09-19T10:25:53;4.80;;;2.00;;
76807;SDS011;65758;45.458;11.062;2023-09-19T10:28:21;6.00;;;2.40;;
76807;SDS011;65758;45.458;11.062;2023-09-19T10:30:50;6.60;;;2.10;;
76807;SDS011;65758;45.458;11.062;2023-09-19T10:33:23;4.80;;;2.20;;
76807;SDS011;65758;45.458;11.062;2023-09-19T10:35:56;5.80;;;2.60;;
76807;SDS011;65758;45.458;11.062;2023-09-19T10:38:27;6.00;;;2.00;;
76807;SDS011;65758;45.458;11.062;2023-09-19T10:40:56;5.80;;;3.00;;
76807;SDS011;65758;45.458;11.062;2023-09-19T10:43:31;4.70;;;2.20;;
76807;SDS011;65758;45.458;11.062;2023-09-19T10:46:03;6.20;;;2.40;;
76807;SDS011;65758;45.458;11.062;2023-09-19T10:48:38;5.50;;;2.00;;
76807;SDS011;65758;45.458;11.062;2023-09-19T10:51:11;7.00;;;2.30;;
76807;SDS011;65758;45.458;11.062;2023-09-19T10:56:25;5.10;;;2.10;;
76807;SDS011;65758;45.458;11.062;2023-09-19T10:59:08;6.50;;;2.60;;
76807;SDS011;65758;45.458;11.062;2023-09-19T11:01:55;6.20;;;2.60;;
76807;SDS011;65758;45.458;11.062;2023-09-19T11:04:26;8.90;;;2.80;;
76807;SDS011;65758;45.458;11.062;2023-09-19T11:09:46;7.80;;;2.90;;
76807;SDS011;65758;45.458;11.062;2023-09-19T11:26:46;7.20;;;2.70;;
76807;SDS011;65758;45.458;11.062;2023-09-19T11:29:25;5.70;;;2.30;;
76807;SDS011;65758;45.458;11.062;2023-09-19T11:31:53;6.40;;;2.30;;
76807;SDS011;65758;45.458;11.062;2023-09-19T11:42:47;5.70;;;2.70;;
76807;SDS011;65758;45.458;11.062;2023-09-19T11:48:10;4.70;;;2.20;;
76807;SDS011;65758;45.458;11.062;2023-09-19T11:50:39;7.20;;;2.40;;
76807;SDS011;65758;45.458;11.062;2023-09-19T11:53:13;7.80;;;2.60;;
76807;SDS011;65758;45.458;11.062;2023-09-19T11:55:42;5.00;;;2.60;;
76807;SDS011;65758;45.458;11.062;2023-09-19T11:58:10;4.40;;;2.10;;
76807;SDS011;65758;45.458;11.062;2023-09-19T12:00:40;6.20;;;2.30;;
76807;SDS011;65758;45.458;11.062;2023-09-19T12:03:11;8.20;;;2.90;;
76807;SDS011;65758;45.458;11.062;2023-09-19T12:05:41;7.80;;;2.70;;
76807;SDS011;65758;45.458;11.062;2023-09-19T12:08:08;6.20;;;2.40;;
76807;SDS011;65758;45.458;11.062;2023-09-19T12:10:48;5.30;;;2.50;;
76807;SDS011;65758;45.458;11.062;2023-09-19T12:13:18;8.20;;;2.70;;
76807;SDS011;65758;45.458;11.062;2023-09-19T12:15:47;8.70;;;2.60;;
76807;SDS011;65758;45.458;11.062;2023-09-19T12:18:27;4.50;;;2.30;;
76807;SDS011;65758;45.458;11.062;2023-09-19T12:20:55;4.60;;;2.10;;
76807;SDS011;65758;45.458;11.062;2023-09-19T12:23:24;10.10;;;2.50;;
76807;SDS011;65758;45.458;11.062;2023-09-19T12:25:52;6.60;;;3.30;;
76807;SDS011;65758;45.458;11.062;2023-09-19T12:28:27;5.20;;;2.50;;
76807;SDS011;65758;45.458;11.062;2023-09-19T12:31:07;8.30;;;2.70;;
76807;SDS011;65758;45.458;11.062;2023-09-19T12:33:34;3.30;;;2.60;;
76807;SDS011;65758;45.458;11.062;2023-09-19T12:36:19;4.10;;;2.30;;
76807;SDS011;65758;45.458;11.062;2023-09-19T12:38:51;5.10;;;2.20;;
76807;SDS011;65758;45.458;11.062;2023-09-19T12:41:19;6.00;;;2.40;;
76807;SDS011;65758;45.458;11.062;2023-09-19T12:43:48;5.20;;;2.40;;
76807;SDS011;65758;45.458;11.062;2023-09-19T12:46:19;6.60;;;2.40;;
76807;SDS011;65758;45.458;11.062;2023-09-19T12:51:44;7.20;;;2.90;;
76807;SDS011;65758;45.458;11.062;2023-09-19T12:54:13;7.00;;;2.40;;
76807;SDS011;65758;45.458;11.062;2023-09-19T12:56:43;4.50;;;2.70;;
76807;SDS011;65758;45.458;11.062;2023-09-19T12:59:12;6.00;;;2.60;;
76807;SDS011;65758;45.458;11.062;2023-09-19T13:01:40;4.40;;;2.20;;
76807;SDS011;65758;45.458;11.062;2023-09-19T13:06:54;4.10;;;2.30;;
76807;SDS011;65758;45.458;11.062;2023-09-19T13:09:22;5.10;;;2.20;;
76807;SDS011;65758;45.458;11.062;2023-09-19T13:12:05;5.60;;;2.50;;
76807;SDS011;65758;45.458;11.062;2023-09-19T13:15:08;6.50;;;2.40;;
76807;SDS011;65758;45.458;11.062;2023-09-19T13:17:44;4.60;;;2.20;;
76807;SDS011;65758;45.458;11.062;2023-09-19T13:20:24;6.00;;;2.10;;
76807;SDS011;65758;45.458;11.062;2023-09-19T13:22:56;6.60;;;2.40;;
76807;SDS011;65758;45.458;11.062;2023-09-19T13:25:37;4.30;;;2.70;;
76807;SDS011;65758;45.458;11.062;2023-09-19T13:28:06;3.60;;;2.20;;
76807;SDS011;65758;45.458;11.062;2023-09-19T13:30:33;7.50;;;2.80;;
76807;SDS011;65758;45.458;11.062;2023-09-19T13:33:10;8.10;;;2.50;;
76807;SDS011;65758;45.458;11.062;2023-09-19T13:35:41;7.30;;;2.50;;
76807;SDS011;65758;45.458;11.062;2023-09-19T13:38:08;3.70;;;2.50;;
76807;SDS011;65758;45.458;11.062;2023-09-19T13:40:36;5.20;;;2.20;;
76807;SDS011;65758;45.458;11.062;2023-09-19T13:43:03;4.80;;;2.30;;
76807;SDS011;65758;45.458;11.062;2023-09-19T13:45:30;6.60;;;2.50;;
76807;SDS011;65758;45.458;11.062;2023-09-19T13:47:57;3.70;;;2.10;;
76807;SDS011;65758;45.458;11.062;2023-09-19T13:50:25;4.20;;;2.30;;
76807;SDS011;65758;45.458;11.062;2023-09-19T13:52:55;6.50;;;2.60;;
76807;SDS011;65758;45.458;11.062;2023-09-19T13:55:22;4.90;;;2.40;;
76807;SDS011;65758;45.458;11.062;2023-09-19T13:57:51;4.40;;;2.30;;
76807;SDS011;65758;45.458;11.062;2023-09-19T14:00:22;6.20;;;2.40;;
76807;SDS011;65758;45.458;11.062;2023-09-19T14:02:50;5.20;;;2.80;;
76807;SDS011;65758;45.458;11.062;2023-09-19T14:05:18;5.70;;;2.50;;
76807;SDS011;65758;45.458;11.062;2023-09-19T14:07:47;6.90;;;2.40;;
76807;SDS011;65758;45.458;11.062;2023-09-19T14:10:14;3.60;;;2.10;;
76807;SDS011;65758;45.458;11.062;2023-09-19T14:12:42;9.30;;;2.60;;
76807;SDS011;65758;45.458;11.062;2023-09-19T14:15:12;5.30;;;2.90;;
76807;SDS011;65758;45.458;11.062;2023-09-19T14:17:39;6.40;;;3.40;;
76807;SDS011;65758;45.458;11.062;2023-09-19T14:20:12;11.00;;;3.30;;
76807;SDS011;65758;45.458;11.062;2023-09-19T14:22:39;9.00;;;3.10;;
76807;SDS011;65758;45.458;11.062;2023-09-19T14:25:06;7.40;;;2.90;;
76807;SDS011;65758;45.458;11.062;2023-09-19T14:27:33;7.30;;;2.70;;
76807;SDS011;65758;45.458;11.062;2023-09-19T14:30:00;6.20;;;2.70;;
76807;SDS011;65758;45.458;11.062;2023-09-19T14:32:27;7.80;;;2.70;;
76807;SDS011;65758;45.458;11.062;2023-09-19T14:34:54;6.50;;;2.90;;
76807;SDS011;65758;45.458;11.062;2023-09-19T14:37:21;10.90;;;3.30;;
76807;SDS011;65758;45.458;11.062;2023-09-19T14:39:48;7.10;;;3.20;;
76807;SDS011;65758;45.458;11.062;2023-09-19T14:42:15;7.70;;;3.70;;
76807;SDS011;65758;45.458;11.062;2023-09-19T14:44:44;8.50;;;3.50;;
76807;SDS011;65758;45.458;11.062;2023-09-19T14:47:14;7.30;;;3.20;;
76807;SDS011;65758;45.458;11.062;2023-09-19T14:49:41;9.60;;;3.40;;
76807;SDS011;65758;45.458;11.062;2023-09-19T14:52:08;5.80;;;3.00;;
76807;SDS011;65758;45.458;11.062;2023-09-19T14:54:36;5.30;;;2.90;;
76807;SDS011;65758;45.458;11.062;2023-09-19T14:57:08;7.20;;;3.10;;
76807;SDS011;65758;45.458;11.062;2023-09-19T14:59:35;7.70;;;2.80;;
76807;SDS011;65758;45.458;11.062;2023-09-19T15:02:06;6.90;;;2.60;;
76807;SDS011;65758;45.458;11.062;2023-09-19T15:04:34;5.10;;;2.60;;
76807;SDS011;65758;45.458;11.062;2023-09-19T15:07:01;4.10;;;2.30;;
76807;SDS011;65758;45.458;11.062;2023-09-19T15:09:29;5.20;;;2.90;;
76807;SDS011;65758;45.458;11.062;2023-09-19T15:11:59;6.00;;;3.10;;
76807;SDS011;65758;45.458;11.062;2023-09-19T15:14:26;5.10;;;2.70;;
76807;SDS011;65758;45.458;11.062;2023-09-19T15:16:52;5.70;;;2.70;;
76807;SDS011;65758;45.458;11.062;2023-09-19T15:19:20;5.50;;;2.30;;
76807;SDS011;65758;45.458;11.062;2023-09-19T15:21:49;6.60;;;2.50;;
76807;SDS011;65758;45.458;11.062;2023-09-19T15:24:16;7.20;;;2.70;;
76807;SDS011;65758;45.458;11.062;2023-09-19T15:26:43;4.60;;;2.50;;
76807;SDS011;65758;45.458;11.062;2023-09-19T15:29:11;7.00;;;2.60;;
76807;SDS011;65758;45.458;11.062;2023-09-19T15:31:40;4.40;;;2.30;;
76807;SDS011;65758;45.458;11.062;2023-09-19T15:34:07;3.90;;;2.20;;
76807;SDS011;65758;45.458;11.062;2023-09-19T15:36:34;2.60;;;2.10;;
76807;SDS011;65758;45.458;11.062;2023-09-19T15:39:02;5.70;;;2.10;;
76807;SDS011;65758;45.458;11.062;2023-09-19T15:41:33;6.80;;;2.20;;
76807;SDS011;65758;45.458;11.062;2023-09-19T15:44:04;5.50;;;2.40;;
76807;SDS011;65758;45.458;11.062;2023-09-19T15:46:37;7.40;;;2.40;;
76807;SDS011;65758;45.458;11.062;2023-09-19T15:49:04;5.70;;;2.50;;
76807;SDS011;65758;45.458;11.062;2023-09-19T15:51:31;5.90;;;2.50;;
76807;SDS011;65758;45.458;11.062;2023-09-19T15:53:58;8.20;;;2.70;;